createdAt,value
2023-04-07T00:00:25.230Z,6.67
2023-04-07T00:01:26.444Z,6.77
2023-04-07T00:02:27.483Z,6.85
2023-04-07T00:03:28.541Z,6.82
2023-04-07T00:04:29.542Z,6.78
2023-04-07T00:05:29.470Z,6.85
2023-04-07T00:06:29.598Z,6.85
2023-04-07T00:07:30.333Z,6.82
2023-04-07T00:08:31.012Z,6.95
2023-04-07T00:09:32.102Z,6.96
2023-04-07T00:10:32.853Z,6.87
2023-04-07T00:11:33.353Z,6.96
2023-04-07T00:12:33.876Z,6.92
2023-04-07T00:13:36.205Z,6.97
2023-04-07T00:16:36.149Z,6.97
2023-04-07T00:17:36.603Z,7.01
2023-04-07T00:18:37.663Z,7
2023-04-07T00:19:38.151Z,7.03
2023-04-07T00:20:38.821Z,6.96
2023-04-07T00:21:39.501Z,7.04
2023-04-07T00:22:40.238Z,6.97
2023-04-07T00:23:40.965Z,7.04
2023-04-07T00:24:41.125Z,7.03
2023-04-07T00:25:41.402Z,7.01
2023-04-07T00:26:41.908Z,7.08
2023-04-07T00:27:42.621Z,7.13
2023-04-07T00:28:43.124Z,7.15
2023-04-07T00:29:43.419Z,7.22
2023-04-07T00:30:43.739Z,7.18
2023-04-07T00:31:44.618Z,7.28
2023-04-07T00:32:46.055Z,7.31
2023-04-07T00:33:46.200Z,7.26
2023-04-07T00:34:46.685Z,7.21
2023-04-07T00:35:47.183Z,7.23
2023-04-07T00:36:48.274Z,7.23
2023-04-07T00:37:49.418Z,7.14
2023-04-07T00:38:49.757Z,7.15
2023-04-07T00:39:50.398Z,7.07
2023-04-07T00:40:50.946Z,7.04
2023-04-07T00:41:51.483Z,7.07
2023-04-07T00:42:52.239Z,7.05
2023-04-07T00:43:53.885Z,7.03
2023-04-07T00:44:53.939Z,7.04
2023-04-07T00:45:53.943Z,7.05
2023-04-07T00:46:54.852Z,7.15
2023-04-07T00:47:55.932Z,7.08
2023-04-07T00:48:56.100Z,7.04
2023-04-07T00:49:56.698Z,7.14
2023-04-07T00:50:56.688Z,7.08
2023-04-07T00:51:56.789Z,7.03
2023-04-07T00:52:57.684Z,7.05
2023-04-07T00:53:57.755Z,6.96
2023-04-07T00:54:58.039Z,7.03
2023-04-07T00:55:59.530Z,7
2023-04-07T00:57:00.422Z,6.97
2023-04-07T00:58:01.118Z,7.01
2023-04-07T00:59:01.619Z,7.01
2023-04-07T01:00:02.376Z,7.04
2023-04-07T01:01:02.677Z,7.05
2023-04-07T01:02:04.136Z,7.01
2023-04-07T01:03:04.913Z,7.04
2023-04-07T01:04:05.838Z,7.03
2023-04-07T01:05:06.029Z,6.96
2023-04-07T01:06:06.784Z,7.01
2023-04-07T01:07:06.524Z,7
2023-04-07T01:08:07.437Z,7.05
2023-04-07T01:09:08.343Z,7.08
2023-04-07T01:10:09.017Z,7.04
2023-04-07T01:11:09.680Z,7.03
2023-04-07T01:12:10.193Z,7.05
2023-04-07T01:13:10.905Z,7.05
2023-04-07T01:14:11.427Z,6.95
2023-04-07T01:15:11.908Z,6.92
2023-04-07T01:16:12.846Z,6.96
2023-04-07T01:17:13.859Z,6.9
2023-04-07T01:18:14.848Z,6.85
2023-04-07T01:19:14.585Z,6.89
2023-04-07T01:20:15.737Z,6.9
2023-04-07T01:21:15.460Z,6.9
2023-04-07T01:22:15.734Z,6.92
2023-04-07T01:23:16.373Z,6.96
2023-04-07T01:24:16.887Z,6.89
2023-04-07T01:25:17.229Z,6.89
2023-04-07T01:26:18.453Z,6.83
2023-04-07T01:27:18.802Z,6.86
2023-04-07T01:28:19.754Z,6.75
2023-04-07T01:29:20.652Z,6.87
2023-04-07T01:30:21.185Z,6.86
2023-04-07T01:31:21.646Z,6.86
2023-04-07T01:32:22.800Z,6.85
2023-04-07T01:33:23.165Z,6.77
2023-04-07T01:34:23.592Z,6.93
2023-04-07T01:35:24.285Z,6.92
2023-04-07T01:36:25.166Z,6.89
2023-04-07T01:37:25.897Z,6.9
2023-04-07T01:38:25.843Z,7.08
2023-04-07T01:39:26.589Z,6.97
2023-04-07T01:40:27.287Z,6.96
2023-04-07T01:41:28.001Z,6.97
2023-04-07T01:42:28.282Z,6.95
2023-04-07T01:43:28.979Z,6.87
2023-04-07T01:44:29.507Z,6.85
2023-04-07T01:45:30.026Z,6.85
2023-04-07T01:46:30.435Z,6.77
2023-04-07T01:47:31.990Z,6.68
2023-04-07T01:48:32.062Z,6.74
2023-04-07T01:49:33.044Z,6.59
2023-04-07T01:50:33.559Z,6.6
2023-04-07T01:51:34.267Z,6.62
2023-04-07T01:52:34.747Z,6.49
2023-04-07T01:53:35.484Z,6.6
2023-04-07T01:54:36.586Z,6.56
2023-04-07T01:55:37.072Z,6.59
2023-04-07T01:56:37.673Z,6.59
2023-04-07T01:57:38.204Z,6.47
2023-04-07T01:58:38.909Z,6.5
2023-04-07T01:59:39.598Z,6.47
2023-04-07T02:00:40.481Z,6.49
2023-04-07T02:01:41.616Z,6.47
2023-04-07T02:02:42.409Z,6.57
2023-04-07T02:03:42.714Z,6.59
2023-04-07T02:04:42.914Z,6.57
2023-04-07T02:05:43.814Z,6.6
2023-04-07T02:06:44.483Z,6.6
2023-04-07T02:07:45.368Z,6.7
2023-04-07T02:08:46.002Z,6.67
2023-04-07T02:09:46.713Z,6.72
2023-04-07T02:10:47.019Z,6.68
2023-04-07T02:11:47.723Z,6.67
2023-04-07T02:12:48.209Z,6.74
2023-04-07T02:13:49.318Z,6.68
2023-04-07T02:14:49.414Z,6.68
2023-04-07T02:15:50.114Z,6.72
2023-04-07T02:16:52.937Z,6.7
2023-04-07T02:18:51.533Z,6.68
2023-04-07T02:19:52.493Z,6.72
2023-04-07T02:20:53.383Z,6.74
2023-04-07T02:21:54.092Z,6.74
2023-04-07T02:22:54.577Z,6.74
2023-04-07T02:23:56.081Z,6.77
2023-04-07T02:24:55.952Z,6.68
2023-04-07T02:25:57.048Z,6.75
2023-04-07T02:26:57.713Z,6.75
2023-04-07T02:27:58.266Z,6.68
2023-04-07T02:28:58.961Z,6.85
2023-04-07T02:29:59.666Z,6.83
2023-04-07T02:30:59.938Z,6.87
2023-04-07T02:32:00.583Z,6.85
2023-04-07T02:33:01.572Z,6.83
2023-04-07T02:34:02.340Z,6.86
2023-04-07T02:35:02.307Z,6.92
2023-04-07T02:36:02.832Z,6.89
2023-04-07T02:37:03.505Z,6.9
2023-04-07T02:38:04.093Z,6.85
2023-04-07T02:39:04.692Z,6.89
2023-04-07T02:40:04.988Z,6.89
2023-04-07T02:41:05.647Z,6.96
2023-04-07T02:42:06.219Z,7.04
2023-04-07T02:43:07.506Z,6.96
2023-04-07T02:44:08.234Z,7.01
2023-04-07T02:45:08.948Z,7.04
2023-04-07T02:46:09.798Z,7
2023-04-07T02:47:10.824Z,6.95
2023-04-07T02:48:11.149Z,7.04
2023-04-07T02:49:11.892Z,7.01
2023-04-07T02:50:13.077Z,6.97
2023-04-07T02:51:13.804Z,7.01
2023-04-07T02:52:14.539Z,6.96
2023-04-07T02:53:15.244Z,6.9
2023-04-07T02:54:15.753Z,6.83
2023-04-07T02:55:16.525Z,6.89
2023-04-07T02:56:16.886Z,6.85
2023-04-07T02:57:17.674Z,6.82
2023-04-07T02:58:18.171Z,6.67
2023-04-07T02:59:18.686Z,6.72
2023-04-07T03:00:19.206Z,6.68
2023-04-07T03:01:19.877Z,6.71
2023-04-07T03:02:19.924Z,6.75
2023-04-07T03:03:20.780Z,6.67
2023-04-07T03:04:21.435Z,6.65
2023-04-07T03:05:21.558Z,6.59
2023-04-07T03:06:22.272Z,6.57
2023-04-07T03:07:23.287Z,6.62
2023-04-07T03:08:23.998Z,6.65
2023-04-07T03:09:24.513Z,6.64
2023-04-07T03:10:25.004Z,6.59
2023-04-07T03:11:25.898Z,6.6
2023-04-07T03:12:26.814Z,6.64
2023-04-07T03:13:27.352Z,6.57
2023-04-07T03:14:28.280Z,6.56
2023-04-07T03:15:28.626Z,6.6
2023-04-07T03:16:29.385Z,6.62
2023-04-07T03:17:30.320Z,6.64
2023-04-07T03:18:31.140Z,6.56
2023-04-07T03:19:31.648Z,6.6
2023-04-07T03:20:32.382Z,6.57
2023-04-07T03:21:32.893Z,6.57
2023-04-07T03:22:33.373Z,6.56
2023-04-07T03:23:33.658Z,6.62
2023-04-07T03:24:34.652Z,6.6
2023-04-07T03:25:35.137Z,6.62
2023-04-07T03:26:35.579Z,6.62
2023-04-07T03:27:35.776Z,6.6
2023-04-07T03:28:36.489Z,6.46
2023-04-07T03:29:37.214Z,6.53
2023-04-07T03:30:37.487Z,6.52
2023-04-07T03:31:37.399Z,6.46
2023-04-07T03:32:37.825Z,6.46
2023-04-07T03:33:38.459Z,6.46
2023-04-07T03:34:39.384Z,6.52
2023-04-07T03:35:40.368Z,6.39
2023-04-07T03:36:40.976Z,6.39
2023-04-07T03:37:41.256Z,6.35
2023-04-07T03:38:41.529Z,6.38
2023-04-07T03:39:42.285Z,6.36
2023-04-07T03:40:43.445Z,6.34
2023-04-07T03:41:44.329Z,6.43
2023-04-07T03:42:45.040Z,6.36
2023-04-07T03:43:45.496Z,6.36
2023-04-07T03:44:45.857Z,6.36
2023-04-07T03:45:46.338Z,6.34
2023-04-07T03:46:47.193Z,6.32
2023-04-07T03:47:47.606Z,6.41
2023-04-07T03:48:48.291Z,6.36
2023-04-07T03:49:48.418Z,6.35
2023-04-07T03:50:49.347Z,6.41
2023-04-07T03:51:49.823Z,6.32
2023-04-07T03:52:50.301Z,6.35
2023-04-07T03:53:51.173Z,6.39
2023-04-07T03:54:52.026Z,6.34
2023-04-07T03:55:51.936Z,6.39
2023-04-07T03:56:52.617Z,6.22
2023-04-07T03:57:53.024Z,6.32
2023-04-07T03:58:53.757Z,6.31
2023-04-07T03:59:54.253Z,6.25
2023-04-07T04:00:55.157Z,6.2
2023-04-07T04:01:55.859Z,6.22
2023-04-07T04:02:56.857Z,6.29
2023-04-07T04:03:58.514Z,6.31
2023-04-07T04:04:58.205Z,6.36
2023-04-07T04:05:57.986Z,6.35
2023-04-07T04:06:58.662Z,6.25
2023-04-07T04:07:59.481Z,6.28
2023-04-07T04:09:00.169Z,6.28
2023-04-07T04:10:00.895Z,6.19
2023-04-07T04:11:01.582Z,6.15
2023-04-07T04:12:02.078Z,6.22
2023-04-07T04:13:02.763Z,6.15
2023-04-07T04:14:03.505Z,6.13
2023-04-07T04:15:04.051Z,6.16
2023-04-07T04:16:04.873Z,6.17
2023-04-07T04:17:06.354Z,6.16
2023-04-07T04:19:06.648Z,6.1
2023-04-07T04:20:06.995Z,6.12
2023-04-07T04:21:07.991Z,6.01
2023-04-07T04:22:08.281Z,6.1
2023-04-07T04:23:08.991Z,6.12
2023-04-07T04:24:09.841Z,6.19
2023-04-07T04:25:10.021Z,6.02
2023-04-07T04:26:10.134Z,6.07
2023-04-07T04:27:11.415Z,6.07
2023-04-07T04:28:11.576Z,6.09
2023-04-07T04:29:12.085Z,6.09
2023-04-07T04:30:13.226Z,6.07
2023-04-07T04:31:13.588Z,5.97
2023-04-07T04:32:14.622Z,5.99
2023-04-07T04:33:14.984Z,5.91
2023-04-07T04:34:15.501Z,5.94
2023-04-07T04:35:16.261Z,5.99
2023-04-07T04:36:17.172Z,6.05
2023-04-07T04:37:17.745Z,6.09
2023-04-07T04:38:17.933Z,6.07
2023-04-07T04:39:19.290Z,6.13
2023-04-07T04:40:20.267Z,6.05
2023-04-07T04:41:20.758Z,6.1
2023-04-07T04:42:21.649Z,6.07
2023-04-07T04:43:22.189Z,6.16
2023-04-07T04:44:22.695Z,6.17
2023-04-07T04:45:23.352Z,6.15
2023-04-07T04:46:23.640Z,6.22
2023-04-07T04:47:25.082Z,6.2
2023-04-07T04:48:25.487Z,6.15
2023-04-07T04:49:26.386Z,6.22
2023-04-07T04:50:26.906Z,6.2
2023-04-07T04:51:28.099Z,6.28
2023-04-07T04:52:28.859Z,6.13
2023-04-07T04:53:29.080Z,6.2
2023-04-07T04:54:29.600Z,6.09
2023-04-07T04:55:30.317Z,6.13
2023-04-07T04:56:31.017Z,6.1
2023-04-07T04:57:31.324Z,6.12
2023-04-07T04:58:31.721Z,6.25
2023-04-07T04:59:32.431Z,6.19
2023-04-07T05:00:33.171Z,6.2
2023-04-07T05:01:33.981Z,6.29
2023-04-07T05:02:34.395Z,6.34
2023-04-07T05:03:34.745Z,6.36
2023-04-07T05:04:35.279Z,6.36
2023-04-07T05:05:35.367Z,6.36
2023-04-07T05:06:35.129Z,6.32
2023-04-07T05:07:35.461Z,6.35
2023-04-07T05:08:36.693Z,6.52
2023-04-07T05:09:37.605Z,6.38
2023-04-07T05:10:38.549Z,6.38
2023-04-07T05:11:38.668Z,6.38
2023-04-07T05:12:39.585Z,6.39
2023-04-07T05:13:39.866Z,6.52
2023-04-07T05:14:40.805Z,6.41
2023-04-07T05:15:41.504Z,6.41
2023-04-07T05:16:42.865Z,6.52
2023-04-07T05:17:43.278Z,6.39
2023-04-07T05:18:43.720Z,6.46
2023-04-07T05:19:44.602Z,6.43
2023-04-07T05:20:45.362Z,6.49
2023-04-07T05:21:45.106Z,6.44
2023-04-07T05:22:45.821Z,6.52
2023-04-07T05:23:46.325Z,6.52
2023-04-07T05:24:46.451Z,6.41
2023-04-07T05:25:47.402Z,6.44
2023-04-07T05:26:48.100Z,6.44
2023-04-07T05:27:48.588Z,6.47
2023-04-07T05:28:49.869Z,6.47
2023-04-07T05:29:50.356Z,6.52
2023-04-07T05:30:50.838Z,6.52
2023-04-07T05:31:51.717Z,6.56
2023-04-07T05:32:52.578Z,6.64
2023-04-07T05:33:53.781Z,6.64
2023-04-07T05:34:54.529Z,6.6
2023-04-07T05:35:55.428Z,6.62
2023-04-07T05:36:55.795Z,6.56
2023-04-07T05:37:56.361Z,6.64
2023-04-07T05:38:56.760Z,6.62
2023-04-07T05:39:57.442Z,6.56
2023-04-07T05:40:58.370Z,6.6
2023-04-07T05:41:58.541Z,6.62
2023-04-07T05:42:58.916Z,6.59
2023-04-07T05:43:59.606Z,6.62
2023-04-07T05:45:00.296Z,6.46
2023-04-07T05:46:01.192Z,6.53
2023-04-07T05:47:01.376Z,6.49
2023-04-07T05:48:02.379Z,6.39
2023-04-07T05:49:19.839Z,6.39
2023-04-07T05:51:03.792Z,6.38
2023-04-07T05:52:04.765Z,6.38
2023-04-07T05:53:05.262Z,6.41
2023-04-07T05:54:05.575Z,6.53
2023-04-07T05:55:06.274Z,6.46
2023-04-07T05:56:07.424Z,6.47
2023-04-07T05:57:08.183Z,6.62
2023-04-07T05:58:08.702Z,6.6
2023-04-07T05:59:09.208Z,6.62
2023-04-07T06:00:09.508Z,6.65
2023-04-07T06:01:10.009Z,6.59
2023-04-07T06:02:11.410Z,6.64
2023-04-07T06:03:11.764Z,6.71
2023-04-07T06:04:11.578Z,6.68
2023-04-07T06:05:12.888Z,6.72
2023-04-07T06:06:12.935Z,6.75
2023-04-07T06:07:13.678Z,6.78
2023-04-07T06:08:14.595Z,6.85
2023-04-07T06:09:15.065Z,6.89
2023-04-07T06:10:15.554Z,6.82
2023-04-07T06:11:16.489Z,6.93
2023-04-07T06:12:16.790Z,6.9
2023-04-07T06:13:17.482Z,6.97
2023-04-07T06:14:18.039Z,7.01
2023-04-07T06:15:18.952Z,7.01
2023-04-07T06:16:20.340Z,6.97
2023-04-07T06:17:20.089Z,7.01
2023-04-07T06:18:20.620Z,7.07
2023-04-07T06:19:21.244Z,7.01
2023-04-07T06:20:21.359Z,7.08
2023-04-07T06:21:21.714Z,7.05
2023-04-07T06:22:22.847Z,7.13
2023-04-07T06:23:23.559Z,7.21
2023-04-07T06:24:23.656Z,7.15
2023-04-07T06:25:24.588Z,7.23
2023-04-07T06:26:25.638Z,7.31
2023-04-07T06:27:26.139Z,7.33
2023-04-07T06:28:26.433Z,7.43
2023-04-07T06:29:26.910Z,7.36
2023-04-07T06:30:27.308Z,7.37
2023-04-07T06:31:27.415Z,7.41
2023-04-07T06:32:27.985Z,7.53
2023-04-07T06:33:29.082Z,7.59
2023-04-07T06:34:29.967Z,7.66
2023-04-07T06:35:30.683Z,7.64
2023-04-07T06:36:31.509Z,7.75
2023-04-07T06:37:31.292Z,7.67
2023-04-07T06:38:31.978Z,7.75
2023-04-07T06:39:32.785Z,7.66
2023-04-07T06:40:33.057Z,7.64
2023-04-07T06:41:34.248Z,7.66
2023-04-07T06:42:34.751Z,7.59
2023-04-07T06:43:35.233Z,7.78
2023-04-07T06:44:35.755Z,7.67
2023-04-07T06:45:36.450Z,7.72
2023-04-07T06:46:37.250Z,7.78
2023-04-07T06:47:38.266Z,7.81
2023-04-07T06:48:39.072Z,7.78
2023-04-07T06:49:42.422Z,7.84
2023-04-07T06:51:40.820Z,7.93
2023-04-07T06:52:40.765Z,7.87
2023-04-07T06:53:41.290Z,7.81
2023-04-07T06:54:41.496Z,7.9
2023-04-07T06:55:42.033Z,7.88
2023-04-07T06:56:42.952Z,7.87
2023-04-07T06:57:43.029Z,7.87
2023-04-07T06:58:43.529Z,7.88
2023-04-07T06:59:44.155Z,7.91
2023-04-07T07:00:44.961Z,7.87
2023-04-07T07:01:46.115Z,7.84
2023-04-07T07:02:45.952Z,7.88
2023-04-07T07:03:47.629Z,7.87
2023-04-07T07:04:46.951Z,7.98
2023-04-07T07:05:50.461Z,7.93
2023-04-07T07:06:48.084Z,7.93
2023-04-07T07:07:48.380Z,7.95
2023-04-07T07:08:49.465Z,7.9
2023-04-07T07:09:49.247Z,7.98
2023-04-07T07:10:49.542Z,8.03
2023-04-07T07:11:50.315Z,8.06
2023-04-07T07:12:50.382Z,8.17
2023-04-07T07:13:51.175Z,8.18
2023-04-07T07:14:51.677Z,8.03
2023-04-07T07:15:53.256Z,8.02
2023-04-07T07:16:53.645Z,8.16
2023-04-07T07:17:54.756Z,8.13
2023-04-07T07:18:54.900Z,8.11
2023-04-07T07:19:54.748Z,8.18
2023-04-07T07:20:55.652Z,8.18
2023-04-07T07:21:55.620Z,8.31
2023-04-07T07:22:56.775Z,8.31
2023-04-07T07:23:56.577Z,8.44
2023-04-07T07:24:57.272Z,8.36
2023-04-07T07:25:57.761Z,8.5
2023-04-07T07:26:58.522Z,8.61
2023-04-07T07:27:59.440Z,8.64
2023-04-07T07:28:59.932Z,8.77
2023-04-07T07:30:00.624Z,8.86
2023-04-07T07:31:01.425Z,8.97
2023-04-07T07:32:02.269Z,9.03
2023-04-07T07:33:02.918Z,9.09
2023-04-07T07:34:03.712Z,9.29
2023-04-07T07:35:04.011Z,9.36
2023-04-07T07:36:04.797Z,9.44
2023-04-07T07:37:04.879Z,9.54
2023-04-07T07:38:04.646Z,9.52
2023-04-07T07:39:05.327Z,9.64
2023-04-07T07:40:05.795Z,9.62
2023-04-07T07:41:06.407Z,9.59
2023-04-07T07:42:07.137Z,9.62
2023-04-07T07:43:07.932Z,9.88
2023-04-07T07:44:08.441Z,9.82
2023-04-07T07:45:09.012Z,9.95
2023-04-07T07:46:09.720Z,10.03
2023-04-07T07:47:10.928Z,10.13
2023-04-07T07:48:11.457Z,10.13
2023-04-07T07:49:12.092Z,10.25
2023-04-07T07:50:12.510Z,10.36
2023-04-07T07:51:13.297Z,10.25
2023-04-07T07:52:16.181Z,10.24
2023-04-07T07:54:14.400Z,10.33
2023-04-07T07:55:14.954Z,10.48
2023-04-07T07:56:15.475Z,10.58
2023-04-07T07:57:16.196Z,10.53
2023-04-07T07:58:16.698Z,10.48
2023-04-07T07:59:18.381Z,10.59
2023-04-07T08:01:17.889Z,10.68
2023-04-07T08:02:18.556Z,10.75
2023-04-07T08:03:18.738Z,10.84
2023-04-07T08:04:19.404Z,10.94
2023-04-07T08:05:19.120Z,11.05
2023-04-07T08:06:19.660Z,11.15
2023-04-07T08:07:20.491Z,11.31
2023-04-07T08:08:20.657Z,11.45
2023-04-07T08:09:21.169Z,11.52
2023-04-07T08:10:22.494Z,11.58
2023-04-07T08:11:23.328Z,11.62
2023-04-07T08:12:24.310Z,11.76
2023-04-07T08:13:24.796Z,11.8
2023-04-07T08:14:25.687Z,11.77
2023-04-07T08:15:25.821Z,11.85
2023-04-07T08:16:26.097Z,11.8
2023-04-07T08:17:27.378Z,11.88
2023-04-07T08:18:27.208Z,12.02
2023-04-07T08:19:27.800Z,12.08
2023-04-07T08:20:28.417Z,11.97
2023-04-07T08:21:29.021Z,11.88
2023-04-07T08:22:29.555Z,11.93
2023-04-07T08:23:30.346Z,12.02
2023-04-07T08:24:30.683Z,12.17
2023-04-07T08:25:31.652Z,12.29
2023-04-07T08:26:32.135Z,12.32
2023-04-07T08:27:32.710Z,12.48
2023-04-07T08:28:33.605Z,12.58
2023-04-07T08:29:35.634Z,12.76
2023-04-07T08:31:35.348Z,13.11
2023-04-07T08:32:36.529Z,13.26
2023-04-07T08:33:36.580Z,13.28
2023-04-07T08:34:37.789Z,13.5
2023-04-07T08:35:38.312Z,13.79
2023-04-07T08:36:39.133Z,13.83
2023-04-07T08:37:39.936Z,14.04
2023-04-07T08:38:40.898Z,13.98
2023-04-07T08:39:41.410Z,14.01
2023-04-07T08:40:41.882Z,14.13
2023-04-07T08:41:42.383Z,14.2
2023-04-07T08:42:43.162Z,14.3
2023-04-07T08:43:44.075Z,14.43
2023-04-07T08:44:43.984Z,14.38
2023-04-07T08:45:44.471Z,14.41
2023-04-07T08:46:44.857Z,14.53
2023-04-07T08:47:45.162Z,15.07
2023-04-07T08:48:45.002Z,15.33
2023-04-07T08:49:45.696Z,15.69
2023-04-07T08:50:45.900Z,15.73
2023-04-07T08:51:46.846Z,15.76
2023-04-07T08:52:47.588Z,15.72
2023-04-07T08:53:49.420Z,15.69
2023-04-07T08:54:49.491Z,15.81
2023-04-07T08:55:50.226Z,15.72
2023-04-07T08:56:49.944Z,15.65
2023-04-07T08:57:50.667Z,15.66
2023-04-07T08:58:51.234Z,15.73
2023-04-07T08:59:51.952Z,15.67
2023-04-07T09:00:52.392Z,15.83
2023-04-07T09:01:53.542Z,15.84
2023-04-07T09:02:54.594Z,16.03
2023-04-07T09:03:55.295Z,16.18
2023-04-07T09:04:55.316Z,16.36
2023-04-07T09:05:55.818Z,16.46
2023-04-07T09:06:56.989Z,16.55
2023-04-07T09:07:57.993Z,16.51
2023-04-07T09:08:57.979Z,16.51
2023-04-07T09:09:58.516Z,16.61
2023-04-07T09:10:59.223Z,16.84
2023-04-07T09:11:59.133Z,17.2
2023-04-07T09:12:59.640Z,17.44
2023-04-07T09:14:00.156Z,17.79
2023-04-07T09:15:00.263Z,18.09
2023-04-07T09:16:01.038Z,18.46
2023-04-07T09:17:01.525Z,18.58
2023-04-07T09:18:02.134Z,18.71
2023-04-07T09:19:02.733Z,18.78
2023-04-07T09:20:03.483Z,18.79
2023-04-07T09:21:04.338Z,18.74
2023-04-07T09:22:04.861Z,18.88
2023-04-07T09:23:05.630Z,19.24
2023-04-07T09:24:06.802Z,19.53
2023-04-07T09:25:06.902Z,19.93
2023-04-07T09:26:08.069Z,20.12
2023-04-07T09:27:08.757Z,20.27
2023-04-07T09:28:09.429Z,20.29
2023-04-07T09:29:09.991Z,19.96
2023-04-07T09:30:11.164Z,19.48
2023-04-07T09:31:11.451Z,19.08
2023-04-07T09:32:12.383Z,18.45
2023-04-07T09:33:12.199Z,18.12
2023-04-07T09:34:12.917Z,17.93
2023-04-07T09:35:13.644Z,17.76
2023-04-07T09:36:14.703Z,17.54
2023-04-07T09:37:15.445Z,17.41
2023-04-07T09:38:16.226Z,16.97
2023-04-07T09:39:17.236Z,16.68
2023-04-07T09:40:17.759Z,16.43
2023-04-07T09:41:18.338Z,16.26
2023-04-07T09:42:18.989Z,16.06
2023-04-07T09:43:19.765Z,15.98
2023-04-07T09:44:20.255Z,16.31
2023-04-07T09:45:37.922Z,16.8
2023-04-07T09:47:21.772Z,17.37
2023-04-07T09:48:22.362Z,17.75
2023-04-07T09:49:22.881Z,17.93
2023-04-07T09:50:23.386Z,17.84
2023-04-07T09:51:23.924Z,17.66
2023-04-07T09:52:24.443Z,17.28
2023-04-07T09:53:24.817Z,17.09
2023-04-07T09:54:25.791Z,16.73
2023-04-07T09:55:26.346Z,16.62
2023-04-07T09:56:26.911Z,16.57
2023-04-07T09:57:27.618Z,16.58
2023-04-07T09:58:27.938Z,16.39
2023-04-07T09:59:28.845Z,16.37
2023-04-07T10:00:28.777Z,16.39
2023-04-07T10:01:29.260Z,16.31
2023-04-07T10:02:30.568Z,16.26
2023-04-07T10:03:30.961Z,16.12
2023-04-07T10:04:31.025Z,16.13
2023-04-07T10:05:31.955Z,16.03
2023-04-07T10:06:32.060Z,15.88
2023-04-07T10:07:32.826Z,15.92
2023-04-07T10:08:33.543Z,15.83
2023-04-07T10:09:34.506Z,15.73
2023-04-07T10:10:35.433Z,15.45
2023-04-07T10:11:35.979Z,15.23
2023-04-07T10:12:36.714Z,15.11
2023-04-07T10:13:37.437Z,15.14
2023-04-07T10:14:40.401Z,15.14
2023-04-07T10:15:38.157Z,15.07
2023-04-07T10:16:38.579Z,15.14
2023-04-07T10:17:38.844Z,15.1
2023-04-07T10:18:38.525Z,15.04
2023-04-07T10:19:39.672Z,15.07
2023-04-07T10:20:40.584Z,14.94
2023-04-07T10:21:40.893Z,15.05
2023-04-07T10:22:41.418Z,15.08
2023-04-07T10:23:41.930Z,14.85
2023-04-07T10:24:42.404Z,14.9
2023-04-07T10:25:43.122Z,14.71
2023-04-07T10:26:46.387Z,14.7
2023-04-07T10:28:45.758Z,14.81
2023-04-07T10:29:46.284Z,14.77
2023-04-07T10:30:46.820Z,14.87
2023-04-07T10:31:47.474Z,15.3
2023-04-07T10:32:48.389Z,15.8
2023-04-07T10:33:49.357Z,15.92
2023-04-07T10:34:49.404Z,15.78
2023-04-07T10:35:49.835Z,15.66
2023-04-07T10:36:50.380Z,15.6
2023-04-07T10:37:51.122Z,15.45
2023-04-07T10:38:51.916Z,15.35
2023-04-07T10:39:52.079Z,15.25
2023-04-07T10:40:52.775Z,15.08
2023-04-07T10:41:53.350Z,15.05
2023-04-07T10:42:54.100Z,15.02
2023-04-07T10:43:55.776Z,14.96
2023-04-07T10:45:55.947Z,14.74
2023-04-07T10:46:56.489Z,14.81
2023-04-07T10:47:57.254Z,14.58
2023-04-07T10:48:57.188Z,14.48
2023-04-07T10:49:58.092Z,14.38
2023-04-07T10:50:58.388Z,14.15
2023-04-07T10:51:58.944Z,14.08
2023-04-07T10:52:59.650Z,14.01
2023-04-07T10:53:59.607Z,13.89
2023-04-07T10:55:00.758Z,13.85
2023-04-07T10:56:00.679Z,13.85
2023-04-07T10:57:01.663Z,13.83
2023-04-07T10:58:02.565Z,13.93
2023-04-07T10:59:03.562Z,14.04
2023-04-07T11:00:04.492Z,13.93
2023-04-07T11:01:05.478Z,14.03
2023-04-07T11:02:06.702Z,13.98
2023-04-07T11:03:07.173Z,14.08
2023-04-07T11:04:07.905Z,14.22
2023-04-07T11:05:08.264Z,14.38
2023-04-07T11:06:09.009Z,14.52
2023-04-07T11:07:09.940Z,14.71
2023-04-07T11:08:10.460Z,15.08
2023-04-07T11:09:10.618Z,15.29
2023-04-07T11:10:11.606Z,15.59
2023-04-07T11:11:12.156Z,15.75
2023-04-07T11:12:12.185Z,15.98
2023-04-07T11:13:13.085Z,15.98
2023-04-07T11:14:13.822Z,15.9
2023-04-07T11:15:14.353Z,16.12
2023-04-07T11:16:15.464Z,16.32
2023-04-07T11:17:16.146Z,16.43
2023-04-07T11:18:16.705Z,16.37
2023-04-07T11:19:17.540Z,16.49
2023-04-07T11:20:18.246Z,16.44
2023-04-07T11:21:18.755Z,16.57
2023-04-07T11:22:34.895Z,16.31
2023-04-07T11:24:21.156Z,15.88
2023-04-07T11:25:21.111Z,15.73
2023-04-07T11:26:21.628Z,15.72
2023-04-07T11:27:21.929Z,15.63
2023-04-07T11:28:22.681Z,15.6
2023-04-07T11:29:23.884Z,15.6
2023-04-07T11:30:24.381Z,15.59
2023-04-07T11:31:25.302Z,15.67
2023-04-07T11:32:26.436Z,15.76
2023-04-07T11:33:26.015Z,15.78
2023-04-07T11:34:26.742Z,15.83
2023-04-07T11:35:27.249Z,15.83
2023-04-07T11:36:28.203Z,15.9
2023-04-07T11:37:28.528Z,15.9
2023-04-07T11:38:29.474Z,16.17
2023-04-07T11:39:29.418Z,16.43
2023-04-07T11:40:30.585Z,16.54
2023-04-07T11:41:31.191Z,16.59
2023-04-07T11:42:32.144Z,16.57
2023-04-07T11:43:32.755Z,16.59
2023-04-07T11:44:33.292Z,16.65
2023-04-07T11:45:34.203Z,16.59
2023-04-07T11:46:34.838Z,16.66
2023-04-07T11:47:35.503Z,16.57
2023-04-07T11:48:36.156Z,16.55
2023-04-07T11:49:37.094Z,16.39
2023-04-07T11:50:37.388Z,16.26
2023-04-07T11:51:38.244Z,16.12
2023-04-07T11:52:38.681Z,15.91
2023-04-07T11:53:38.644Z,15.65
2023-04-07T11:54:39.243Z,15.57
2023-04-07T11:55:40.200Z,15.57
2023-04-07T11:56:40.749Z,15.36
2023-04-07T11:57:41.248Z,15.29
2023-04-07T11:58:42.191Z,15.23
2023-04-07T11:59:43.133Z,15.12
2023-04-07T12:00:43.629Z,15.08
2023-04-07T12:01:44.306Z,15.04
2023-04-07T12:02:45.392Z,14.89
2023-04-07T12:03:45.936Z,14.74
2023-04-07T12:04:46.114Z,14.58
2023-04-07T12:05:46.087Z,14.44
2023-04-07T12:06:47.069Z,14.4
2023-04-07T12:07:47.653Z,14.13
2023-04-07T12:08:48.596Z,14
2023-04-07T12:09:49.359Z,13.93
2023-04-07T12:10:50.559Z,13.68
2023-04-07T12:11:51.038Z,13.67
2023-04-07T12:12:52.054Z,13.64
2023-04-07T12:13:53.393Z,13.55
2023-04-07T12:14:53.379Z,13.43
2023-04-07T12:15:54.092Z,13.33
2023-04-07T12:16:54.684Z,13.3
2023-04-07T12:17:55.842Z,13.2
2023-04-07T12:18:55.764Z,13.36
2023-04-07T12:19:56.061Z,13.21
2023-04-07T12:20:56.682Z,13.13
2023-04-07T12:21:57.030Z,13.11
2023-04-07T12:22:57.854Z,13.09
2023-04-07T12:23:58.616Z,13.03
2023-04-07T12:24:58.949Z,12.88
2023-04-07T12:26:00.120Z,12.9
2023-04-07T12:27:00.642Z,12.88
2023-04-07T12:28:01.400Z,12.86
2023-04-07T12:29:01.900Z,12.81
2023-04-07T12:30:02.732Z,12.9
2023-04-07T12:31:02.698Z,12.81
2023-04-07T12:32:03.082Z,12.63
2023-04-07T12:33:03.691Z,12.68
2023-04-07T12:34:03.831Z,12.62
2023-04-07T12:35:04.920Z,12.54
2023-04-07T12:36:05.758Z,12.5
2023-04-07T12:37:05.587Z,12.47
2023-04-07T12:38:06.070Z,12.37
2023-04-07T12:39:06.680Z,12.36
2023-04-07T12:40:07.209Z,12.45
2023-04-07T12:41:08.200Z,12.33
2023-04-07T12:42:08.661Z,12.3
2023-04-07T12:43:09.567Z,12.29
2023-04-07T12:44:10.296Z,12.32
2023-04-07T12:45:10.925Z,12.3
2023-04-07T12:46:11.575Z,12.32
2023-04-07T12:47:12.409Z,12.29
2023-04-07T12:48:13.236Z,12.29
2023-04-07T12:49:13.957Z,12.25
2023-04-07T12:50:14.446Z,12.35
2023-04-07T12:51:15.370Z,12.25
2023-04-07T12:52:15.854Z,12.32
2023-04-07T12:53:16.225Z,12.32
2023-04-07T12:54:16.352Z,12.3
2023-04-07T12:55:16.672Z,12.26
2023-04-07T12:56:17.405Z,12.32
2023-04-07T12:57:17.925Z,12.29
2023-04-07T12:58:18.654Z,12.25
2023-04-07T12:59:18.932Z,12.25
2023-04-07T13:00:19.650Z,12.32
2023-04-07T13:01:20.435Z,12.18
2023-04-07T13:02:21.869Z,12.12
2023-04-07T13:03:23.086Z,12.23
2023-04-07T13:04:22.627Z,12.2
2023-04-07T13:05:22.751Z,12.32
2023-04-07T13:06:23.078Z,12.28
2023-04-07T13:07:23.568Z,12.3
2023-04-07T13:08:24.050Z,12.36
2023-04-07T13:09:25.104Z,12.36
2023-04-07T13:10:25.703Z,12.39
2023-04-07T13:11:26.675Z,12.47
2023-04-07T13:12:27.203Z,12.5
2023-04-07T13:13:28.444Z,12.57
2023-04-07T13:14:28.943Z,12.66
2023-04-07T13:15:30.232Z,12.68
2023-04-07T13:16:31.229Z,12.75
2023-04-07T13:17:31.548Z,12.84
2023-04-07T13:18:31.176Z,12.87
2023-04-07T13:19:32.084Z,12.83
2023-04-07T13:20:32.989Z,12.93
2023-04-07T13:21:51.937Z,12.88
2023-04-07T13:23:47.130Z,12.81
2023-04-07T13:24:35.798Z,12.8
2023-04-07T13:25:36.299Z,12.87
2023-04-07T13:26:37.277Z,12.81
2023-04-07T13:27:38.405Z,12.87
2023-04-07T13:28:38.499Z,12.78
2023-04-07T13:29:39.017Z,12.91
2023-04-07T13:30:39.836Z,12.91
2023-04-07T13:31:40.386Z,12.95